Temp: 9.2°C   Baro: 994.4mb
  Wind: 2.9mph   Dir: SW (222°)
  Rain: 0.0mm (0.0mm/hr)
  Solar: 0W/m2  Hum: 85%
 
Bath Spa Weather Station Historical Data
Daily Summary for September 18, 2020 Units:  Metric    English   Both
Daily Weekly Monthly Yearly Custom
  High: Low: Average:
Temperature: 21.7 °C 10.3 °C 15.6 °C
Dew Point: 13.7 °C 8.3 °C 10.6 °C
Humidity: 86% 55.2% 71%
Wind Speed: 17.4km/h 0.6km/h 8.2km/h
Wind Gust: 40.2km/h - -
Wind- - East
Pressure: 1025.6 hPa 1018.5 hPa -
Precipitation: 0 mm    
Historical Graphs
 
 
Tabular Data for September 18, 2020
Time Temperature Dew Point Pressure Wind Wind Speed Wind Gust Humidity Rainfall Rate (Hourly) solar
00:04 12.8 °C 8.7 °C 1025.6 hPa East 6 km/h 12.9 km/h 73% 0 mm 0 W/m2
00:09 12.8 °C 8.6 °C 1025.6 hPa East 6.4 km/h 17.7 km/h 73% 0 mm 0 W/m2
00:14 12.7 °C 8.7 °C 1025.6 hPa ESE 4.7 km/h 16.1 km/h 73.8% 0 mm 0 W/m2
00:19 12.7 °C 8.7 °C 1025.6 hPa ESE 3.4 km/h 16.1 km/h 74% 0 mm 0 W/m2
00:24 12.6 °C 8.6 °C 1025.6 hPa East 5.8 km/h 16.1 km/h 74% 0 mm 0 W/m2
00:29 12.6 °C 8.6 °C 1025.6 hPa East 2.9 km/h 9.7 km/h 74% 0 mm 0 W/m2
00:34 12.4 °C 8.4 °C 1025.6 hPa East 2.4 km/h 8 km/h 74% 0 mm 0 W/m2
00:39 12.4 °C 8.4 °C 1025.6 hPa ENE 3.5 km/h 8 km/h 74.3% 0 mm 0 W/m2
00:44 12.3 °C 8.5 °C 1025.6 hPa ENE 4.8 km/h 14.5 km/h 75% 0 mm 0 W/m2
00:49 12.3 °C 8.5 °C 1025.6 hPa East 4.2 km/h 20.9 km/h 75% 0 mm 0 W/m2
00:54 12.2 °C 8.4 °C 1025.6 hPa East 5.8 km/h 12.9 km/h 75% 0 mm 0 W/m2
00:59 12.2 °C 8.4 °C 1025.6 hPa ENE 4 km/h 12.9 km/h 75% 0 mm 0 W/m2
01:04 12.2 °C 8.4 °C 1025.6 hPa ENE 4 km/h 12.9 km/h 75% 0 mm 0 W/m2
01:09 12.2 °C 8.5 °C 1025.6 hPa East 4.2 km/h 14.5 km/h 75.6% 0 mm 0 W/m2
01:14 12.2 °C 8.6 °C 1025.3 hPa East 7.2 km/h 12.9 km/h 76% 0 mm 0 W/m2
01:19 12.2 °C 8.6 °C 1025.3 hPa East 7.2 km/h 16.1 km/h 76% 0 mm 0 W/m2
01:23 12.2 °C 8.6 °C 1025.3 hPa ENE 8.7 km/h 16.1 km/h 76% 0 mm 0 W/m2
01:29 12.2 °C 8.6 °C 1025.3 hPa ENE 6.3 km/h 16.1 km/h 76% 0 mm 0 W/m2
01:34 12.2 °C 8.6 °C 1025.3 hPa ENE 4.7 km/h 20.9 km/h 76% 0 mm 0 W/m2
01:39 12.1 °C 8.5 °C 1025.3 hPa NE 5.3 km/h 11.3 km/h 76% 0 mm 0 W/m2
01:44 12.1 °C 8.5 °C 1025.3 hPa East 9.7 km/h 22.5 km/h 76% 0 mm 0 W/m2
01:49 12 °C 8.4 °C 1025.3 hPa East 5.1 km/h 16.1 km/h 76% 0 mm 0 W/m2
01:54 11.9 °C 8.3 °C 1025.3 hPa East 2.7 km/h 12.9 km/h 76% 0 mm 0 W/m2
01:59 11.9 °C 8.3 °C 1025.3 hPa East 4.3 km/h 11.3 km/h 76.2% 0 mm 0 W/m2
02:04 11.8 °C 8.4 °C 1025.3 hPa ENE 5 km/h 16.1 km/h 76.6% 0 mm 0 W/m2
02:09 11.8 °C 8.4 °C 1025.3 hPa East 10.1 km/h 16.1 km/h 77% 0 mm 0 W/m2
02:14 11.8 °C 8.4 °C 1025.3 hPa East 4.2 km/h 16.1 km/h 77.2% 0 mm 0 W/m2
02:19 11.7 °C 8.5 °C 1025.3 hPa ENE 4.5 km/h 14.5 km/h 78% 0 mm 0 W/m2
02:24 11.7 °C 8.5 °C 1025.3 hPa ENE 5 km/h 11.3 km/h 78% 0 mm 0 W/m2
02:29 11.6 °C 8.5 °C 1025.3 hPa East 4.3 km/h 12.9 km/h 78.6% 0 mm 0 W/m2
02:34 11.6 °C 8.6 °C 1024.9 hPa ENE 4 km/h 9.7 km/h 79% 0 mm 0 W/m2
02:39 11.5 °C 8.5 °C 1024.9 hPa ENE 2.7 km/h 9.7 km/h 79% 0 mm 0 W/m2
02:44 11.4 °C 8.5 °C 1024.9 hPa ENE 0.6 km/h 8 km/h 79.6% 0 mm 0 W/m2
02:49 11.4 °C 8.6 °C 1024.9 hPa East 6.4 km/h 17.7 km/h 80% 0 mm 0 W/m2
02:54 11.4 °C 8.6 °C 1024.9 hPa ENE 4.3 km/h 11.3 km/h 80% 0 mm 0 W/m2
02:59 11.3 °C 8.6 °C 1024.9 hPa ENE 3.7 km/h 12.9 km/h 81% 0 mm 0 W/m2
03:04 11.3 °C 8.6 °C 1024.6 hPa ENE 1.9 km/h 4.8 km/h 81% 0 mm 0 W/m2
03:09 11.3 °C 8.6 °C 1024.6 hPa East 3.2 km/h 12.9 km/h 81% 0 mm 0 W/m2
03:14 11.3 °C 8.6 °C 1024.6 hPa ENE 4 km/h 12.9 km/h 81% 0 mm 0 W/m2
03:19 11.3 °C 8.7 °C 1024.6 hPa NE 5.1 km/h 17.7 km/h 81.6% 0 mm 0 W/m2
03:24 11.3 °C 8.8 °C 1024.3 hPa ENE 7.7 km/h 25.7 km/h 82% 0 mm 0 W/m2
03:29 11.3 °C 8.8 °C 1024.3 hPa East 5.6 km/h 16.1 km/h 82% 0 mm 0 W/m2
03:34 11.3 °C 8.8 °C 1024.3 hPa ENE 5.1 km/h 14.5 km/h 82% 0 mm 0 W/m2
03:39 11.3 °C 8.8 °C 1024.3 hPa East 8 km/h 20.9 km/h 82% 0 mm 0 W/m2
03:44 11.3 °C 8.8 °C 1023.9 hPa ENE 4 km/h 12.9 km/h 82.2% 0 mm 0 W/m2
03:49 11.3 °C 9 °C 1023.9 hPa East 6.3 km/h 14.5 km/h 83% 0 mm 0 W/m2
03:54 11.2 °C 8.9 °C 1023.9 hPa ENE 3.1 km/h 11.3 km/h 83% 0 mm 0 W/m2
03:59 11.2 °C 8.9 °C 1023.9 hPa ENE 3.5 km/h 12.9 km/h 83% 0 mm 0 W/m2
04:04 11.2 °C 8.9 °C 1023.9 hPa East 3.2 km/h 11.3 km/h 83% 0 mm 0 W/m2
04:09 11.2 °C 8.9 °C 1023.9 hPa ENE 4.8 km/h 11.3 km/h 83% 0 mm 0 W/m2
04:14 11.2 °C 8.9 °C 1023.9 hPa East 8 km/h 17.7 km/h 83% 0 mm 0 W/m2
04:19 11.2 °C 8.9 °C 1023.9 hPa ENE 5.8 km/h 12.9 km/h 83% 0 mm 0 W/m2
04:24 11.2 °C 8.9 °C 1023.9 hPa ENE 5.5 km/h 12.9 km/h 83% 0 mm 0 W/m2
04:29 11.2 °C 8.9 °C 1023.6 hPa East 7.4 km/h 17.7 km/h 83% 0 mm 0 W/m2
04:34 11.1 °C 8.8 °C 1023.6 hPa ENE 7.7 km/h 16.1 km/h 83% 0 mm 0 W/m2
04:39 11.1 °C 8.9 °C 1023.6 hPa ENE 5.1 km/h 20.9 km/h 83.6% 0 mm 0 W/m2
04:44 11.1 °C 9 °C 1023.6 hPa ESE 8.2 km/h 16.1 km/h 84% 0 mm 0 W/m2
04:49 11.1 °C 9 °C 1023.6 hPa East 6.3 km/h 17.7 km/h 84% 0 mm 0 W/m2
04:53 11.1 °C 9 °C 1023.6 hPa East 4.8 km/h 12.9 km/h 84% 0 mm 0 W/m2
04:59 11.1 °C 9 °C 1023.6 hPa ENE 5.8 km/h 14.5 km/h 84% 0 mm 0 W/m2
05:04 11 °C 8.9 °C 1023.6 hPa East 3.2 km/h 12.9 km/h 84% 0 mm 0 W/m2
05:09 10.9 °C 8.8 °C 1023.6 hPa ENE 8 km/h 19.3 km/h 84% 0 mm 0 W/m2
05:14 10.9 °C 8.8 °C 1023.6 hPa ENE 4.5 km/h 16.1 km/h 84% 0 mm 0 W/m2
05:19 10.9 °C 8.8 °C 1023.6 hPa East 3.4 km/h 17.7 km/h 84% 0 mm 0 W/m2
05:24 10.8 °C 8.7 °C 1023.6 hPa East 4.2 km/h 12.9 km/h 84% 0 mm 0 W/m2
05:28 10.8 °C 8.8 °C 1023.2 hPa ESE 3.5 km/h 11.3 km/h 84.3% 0 mm 0 W/m2
05:34 10.8 °C 8.9 °C 1023.2 hPa ESE 4 km/h 14.5 km/h 85% 0 mm 0 W/m2
05:39 10.7 °C 8.8 °C 1023.2 hPa ENE 5.8 km/h 14.5 km/h 85% 0 mm 0 W/m2
05:44 10.7 °C 8.8 °C 1023.2 hPa ENE 7.6 km/h 20.9 km/h 85% 0 mm 0 W/m2
05:49 10.7 °C 8.8 °C 1023.2 hPa East 5.3 km/h 20.9 km/h 85% 0 mm 0 W/m2
05:54 10.7 °C 8.8 °C 1023.2 hPa ENE 7.6 km/h 19.3 km/h 85% 0 mm 0 W/m2
05:59 10.6 °C 8.7 °C 1023.2 hPa East 8 km/h 20.9 km/h 85% 0 mm 0 W/m2
06:03 10.6 °C 8.7 °C 1023.2 hPa East 6.1 km/h 24.1 km/h 85% 0 mm 0 W/m2
06:09 10.6 °C 8.7 °C 1023.2 hPa ENE 4.5 km/h 24.1 km/h 85.2% 0 mm 0 W/m2
06:14 10.6 °C 8.8 °C 1023.2 hPa East 6.9 km/h 22.5 km/h 86% 0 mm 0 W/m2
06:19 10.6 °C 8.8 °C 1023.2 hPa ENE 7.6 km/h 20.9 km/h 86% 0 mm 0 W/m2
06:24 10.4 °C 8.7 °C 1022.9 hPa NE 6 km/h 17.7 km/h 86% 0 mm 0 W/m2
06:29 10.4 °C 8.6 °C 1022.9 hPa ENE 8.7 km/h 17.7 km/h 86% 0 mm 0 W/m2
06:34 10.4 °C 8.6 °C 1023.2 hPa ENE 6.6 km/h 14.5 km/h 86% 0 mm 0 W/m2
06:39 10.4 °C 8.6 °C 1023.2 hPa East 4.8 km/h 17.7 km/h 86% 0 mm 0 W/m2
06:44 10.4 °C 8.6 °C 1022.9 hPa ENE 7.1 km/h 12.9 km/h 86% 0 mm 0 W/m2
06:49 10.4 °C 8.6 °C 1022.9 hPa ENE 10.8 km/h 20.9 km/h 86% 0 mm 0 W/m2
06:54 10.4 °C 8.6 °C 1022.9 hPa ENE 6.8 km/h 17.7 km/h 86% 0 mm 5 W/m2
06:59 10.4 °C 8.6 °C 1022.9 hPa East 3.2 km/h 16.1 km/h 86% 0 mm 7 W/m2
07:04 10.3 °C 8.6 °C 1023.2 hPa ENE 8 km/h 16.1 km/h 86% 0 mm 11 W/m2
07:09 10.3 °C 8.6 °C 1022.9 hPa ESE 4 km/h 14.5 km/h 86% 0 mm 14 W/m2
07:14 10.4 °C 8.6 °C 1022.9 hPa East 7.1 km/h 20.9 km/h 86% 0 mm 19 W/m2
07:19 10.4 °C 8.6 °C 1022.9 hPa ESE 6.1 km/h 17.7 km/h 86% 0 mm 23 W/m2
07:24 10.4 °C 8.6 °C 1022.9 hPa East 7.2 km/h 16.1 km/h 86% 0 mm 30 W/m2
07:29 10.4 °C 8.7 °C 1022.9 hPa ENE 6.1 km/h 17.7 km/h 86% 0 mm 35 W/m2
07:34 10.6 °C 8.8 °C 1022.9 hPa East 8 km/h 17.7 km/h 86% 0 mm 40 W/m2
07:39 10.7 °C 8.9 °C 1022.9 hPa NE 8 km/h 22.5 km/h 86% 0 mm 46 W/m2
07:44 10.7 °C 8.9 °C 1022.9 hPa East 9 km/h 14.5 km/h 85.6% 0 mm 54 W/m2
07:49 10.8 °C 8.9 °C 1022.9 hPa ENE 7.6 km/h 24.1 km/h 85% 0 mm 62 W/m2
07:54 10.9 °C 9 °C 1022.9 hPa ENE 9.5 km/h 20.9 km/h 85% 0 mm 67 W/m2
07:59 11.1 °C 9.2 °C 1022.9 hPa ESE 5.1 km/h 22.5 km/h 84.8% 0 mm 72 W/m2
08:04 11.2 °C 9.1 °C 1022.9 hPa East 7.7 km/h 22.5 km/h 84% 0 mm 74 W/m2
08:09 11.3 °C 9.2 °C 1022.9 hPa ENE 9.3 km/h 22.5 km/h 84% 0 mm 81 W/m2
08:14 11.5 °C 9.3 °C 1022.9 hPa ENE 10.3 km/h 20.9 km/h 83.8% 0 mm 86 W/m2
08:19 11.7 °C 9.4 °C 1022.9 hPa ENE 4.3 km/h 17.7 km/h 83% 0 mm 95 W/m2
08:24 11.8 °C 9.3 °C 1022.6 hPa ENE 10.5 km/h 20.9 km/h 82.2% 0 mm 104 W/m2
08:29 11.9 °C 9.4 °C 1022.9 hPa ENE 10 km/h 20.9 km/h 81.8% 0 mm 116 W/m2
08:34 12.1 °C 9.4 °C 1022.9 hPa East 5 km/h 17.7 km/h 81% 0 mm 132 W/m2
08:39 12.3 °C 9.5 °C 1022.9 hPa NE 8 km/h 17.7 km/h 80.6% 0 mm 151 W/m2
08:44 12.4 °C 9.5 °C 1022.9 hPa NE 11.3 km/h 24.1 km/h 80% 0 mm 169 W/m2
08:49 12.7 °C 9.6 °C 1022.9 hPa East 10.9 km/h 25.7 km/h 79% 0 mm 176 W/m2
08:54 12.8 °C 9.7 °C 1022.9 hPa East 11.9 km/h 24.1 km/h 78.8% 0 mm 183 W/m2
08:59 12.9 °C 9.6 °C 1022.9 hPa East 14.6 km/h 27.4 km/h 78% 0 mm 193 W/m2
09:04 13.1 °C 9.7 °C 1022.9 hPa ENE 14.8 km/h 29 km/h 77.4% 0 mm 204 W/m2
09:09 13.2 °C 9.8 °C 1022.9 hPa ENE 10.3 km/h 25.7 km/h 77.2% 0 mm 216 W/m2
09:14 13.3 °C 9.8 °C 1022.9 hPa ENE 9.3 km/h 27.4 km/h 77% 0 mm 229 W/m2
09:19 13.5 °C 10 °C 1023.2 hPa East 10.9 km/h 33.8 km/h 77% 0 mm 244 W/m2
09:24 13.7 °C 10 °C 1023.2 hPa ESE 9.3 km/h 22.5 km/h 76% 0 mm 258 W/m2
09:29 13.9 °C 10.2 °C 1023.2 hPa East 7.7 km/h 19.3 km/h 76% 0 mm 274 W/m2
09:34 13.9 °C 10.1 °C 1023.2 hPa ENE 12.9 km/h 20.9 km/h 75.2% 0 mm 287 W/m2
09:39 14.2 °C 10.3 °C 1023.2 hPa East 10.6 km/h 24.1 km/h 75.2% 0 mm 304 W/m2
09:44 14.4 °C 10.4 °C 1023.2 hPa ENE 13 km/h 20.9 km/h 74.8% 0 mm 323 W/m2
09:49 14.4 °C 10.3 °C 1023.2 hPa NE 10.5 km/h 25.7 km/h 74% 0 mm 336 W/m2
09:54 14.5 °C 10.5 °C 1023.2 hPa East 10.6 km/h 24.1 km/h 74.6% 0 mm 339 W/m2
09:59 14.9 °C 10.9 °C 1023.2 hPa ENE 7.9 km/h 24.1 km/h 74.2% 0 mm 357 W/m2
10:04 15.2 °C 10.8 °C 1023.2 hPa ENE 10 km/h 24.1 km/h 73% 0 mm 374 W/m2
10:09 15.3 °C 11 °C 1023.2 hPa ENE 13.8 km/h 30.6 km/h 73% 0 mm 394 W/m2
10:14 15.5 °C 11.2 °C 1023.2 hPa ENE 11.9 km/h 27.4 km/h 73% 0 mm 410 W/m2
10:19 15.8 °C 11.4 °C 1022.9 hPa ENE 13.4 km/h 20.9 km/h 72.5% 0 mm 417 W/m2
10:24 16.1 °C 11.3 °C 1022.9 hPa ESE 8.5 km/h 25.7 km/h 71.2% 0 mm 429 W/m2
10:29 16.2 °C 11.3 °C 1022.9 hPa East 10.3 km/h 27.4 km/h 71% 0 mm 439 W/m2
10:34 16.4 °C 11.6 °C 1022.9 hPa ESE 9.5 km/h 27.4 km/h 70.8% 0 mm 452 W/m2
10:39 16.6 °C 11.6 °C 1022.9 hPa East 12.9 km/h 27.4 km/h 70.2% 0 mm 468 W/m2
10:44 16.6 °C 11.6 °C 1022.9 hPa ENE 11.6 km/h 22.5 km/h 70% 0 mm 469 W/m2
10:49 16.7 °C 11.7 °C 1022.9 hPa ESE 12.2 km/h 24.1 km/h 69.8% 0 mm 482 W/m2
10:54 16.8 °C 11.6 °C 1022.6 hPa ENE 9.3 km/h 20.9 km/h 69.2% 0 mm 490 W/m2
10:59 17 °C 11.8 °C 1022.6 hPa ENE 4 km/h 27.4 km/h 69.2% 0 mm 499 W/m2
11:04 17.3 °C 11.8 °C 1022.6 hPa NE 9 km/h 22.5 km/h 68.2% 0 mm 506 W/m2
11:09 17.6 °C 12 °C 1022.2 hPa East 12.1 km/h 32.2 km/h 67.8% 0 mm 515 W/m2
11:14 17.8 °C 11.9 °C 1022.2 hPa ESE 13.5 km/h 33.8 km/h 66.4% 0 mm 522 W/m2
11:19 17.7 °C 11.9 °C 1022.2 hPa East 8 km/h 20.9 km/h 66.6% 0 mm 529 W/m2
11:24 17.6 °C 12 °C 1022.2 hPa NE 15.1 km/h 35.4 km/h 67.8% 0 mm 536 W/m2
11:29 17.6 °C 12.5 °C 1022.2 hPa ESE 10.5 km/h 29 km/h 70% 0 mm 541 W/m2
11:34 17.9 °C 12.8 °C 1022.2 hPa ENE 14 km/h 24.1 km/h 69.6% 0 mm 547 W/m2
11:39 18.2 °C 12.8 °C 1021.9 hPa ESE 9.3 km/h 24.1 km/h 68.8% 0 mm 555 W/m2
11:44 18.6 °C 13.1 °C 1021.9 hPa ENE 9.7 km/h 24.1 km/h 68.2% 0 mm 561 W/m2
11:49 18.7 °C 13.1 °C 1021.9 hPa East 11.9 km/h 22.5 km/h 67.6% 0 mm 566 W/m2
11:54 18.7 °C 12.9 °C 1021.9 hPa ESE 10.9 km/h 25.7 km/h 67% 0 mm 570 W/m2
11:59 19.2 °C 13.4 °C 1021.9 hPa NE 10 km/h 24.1 km/h 67% 0 mm 575 W/m2
12:04 19.2 °C 13.3 °C 1021.9 hPa ENE 11.3 km/h 27.4 km/h 66.4% 0 mm 577 W/m2
12:09 19.2 °C 13.2 °C 1021.6 hPa ESE 11.3 km/h 30.6 km/h 66.3% 0 mm 582 W/m2
12:14 19.4 °C 13.2 °C 1021.6 hPa ENE 11.3 km/h 30.6 km/h 65.4% 0 mm 587 W/m2
12:19 19.3 °C 13.2 °C 1021.6 hPa ENE 10.3 km/h 30.6 km/h 65.6% 0 mm 584 W/m2
12:24 19.3 °C 13.2 °C 1021.2 hPa ENE 12.9 km/h 24.1 km/h 65.3% 0 mm 585 W/m2
12:29 19.5 °C 13.2 °C 1021.2 hPa ESE 10.3 km/h 22.5 km/h 64.8% 0 mm 587 W/m2
12:34 19.7 °C 13.1 °C 1021.2 hPa ENE 9.8 km/h 20.9 km/h 63.8% 0 mm 585 W/m2
12:39 19.8 °C 13.2 °C 1021.2 hPa ENE 13.2 km/h 25.7 km/h 64% 0 mm 587 W/m2
12:44 20 °C 13.2 °C 1021.2 hPa ENE 10 km/h 20.9 km/h 63% 0 mm 582 W/m2
12:49 19.9 °C 13.2 °C 1021.2 hPa East 9.3 km/h 24.1 km/h 63.2% 0 mm 589 W/m2
12:54 20.1 °C 12.7 °C 1021.2 hPa ESE 12.6 km/h 37 km/h 60.6% 0 mm 591 W/m2
12:59 20.2 °C 12.8 °C 1021.2 hPa ESE 8.2 km/h 32.2 km/h 60.6% 0 mm 587 W/m2
13:04 20 °C 12.5 °C 1021.2 hPa East 13.2 km/h 38.6 km/h 60% 0 mm 598 W/m2
13:09 19.8 °C 12.4 °C 1021.2 hPa ESE 15.9 km/h 29 km/h 60.5% 0 mm 599 W/m2
13:14 19.8 °C 12.5 °C 1021.2 hPa ESE 12.1 km/h 29 km/h 60.8% 0 mm 599 W/m2
13:19 20.1 °C 12.4 °C 1021.2 hPa ESE 16.6 km/h 29 km/h 59.6% 0 mm 603 W/m2
13:24 20.2 °C 12.6 °C 1020.9 hPa ENE 14.2 km/h 27.4 km/h 59.8% 0 mm 603 W/m2
13:29 20.2 °C 12.7 °C 1020.9 hPa ESE 12.9 km/h 27.4 km/h 59.8% 0 mm 605 W/m2
13:34 20.1 °C 12.3 °C 1020.9 hPa ESE 11.3 km/h 33.8 km/h 59.2% 0 mm 605 W/m2
13:39 20.1 °C 12.4 °C 1020.9 hPa ESE 11.3 km/h 27.4 km/h 59.8% 0 mm 612 W/m2
13:44 20.3 °C 12.7 °C 1020.9 hPa ESE 14.5 km/h 35.4 km/h 60% 0 mm 606 W/m2
13:49 20.3 °C 12.7 °C 1020.9 hPa East 10.9 km/h 30.6 km/h 60% 0 mm 603 W/m2
13:54 20.4 °C 12.7 °C 1020.9 hPa East 17.4 km/h 29 km/h 59.4% 0 mm 601 W/m2
13:59 20.7 °C 12.9 °C 1020.5 hPa ENE 16.1 km/h 30.6 km/h 59.2% 0 mm 601 W/m2
14:04 20.9 °C 13.2 °C 1020.5 hPa ESE 14 km/h 22.5 km/h 59.3% 0 mm 594 W/m2
14:09 20.8 °C 13.1 °C 1020.5 hPa East 16.4 km/h 24.1 km/h 59.4% 0 mm 589 W/m2
14:14 20.8 °C 13 °C 1020.5 hPa East 13.5 km/h 25.7 km/h 59% 0 mm 585 W/m2
14:19 20.7 °C 12.9 °C 1020.5 hPa East 11.4 km/h 30.6 km/h 59% 0 mm 585 W/m2
14:24 20.9 °C 13.1 °C 1020.5 hPa NE 14.8 km/h 37 km/h 59% 0 mm 584 W/m2
14:29 20.7 °C 13.1 °C 1020.2 hPa East 7.2 km/h 27.4 km/h 59.5% 0 mm 578 W/m2
14:34 21.1 °C 13.1 °C 1020.2 hPa East 10.9 km/h 25.7 km/h 58.6% 0 mm 577 W/m2
14:39 21.1 °C 13 °C 1020.2 hPa ENE 11.6 km/h 25.7 km/h 58.2% 0 mm 580 W/m2
14:44 21.2 °C 13.1 °C 1020.2 hPa East 8 km/h 29 km/h 58% 0 mm 573 W/m2
14:49 21.2 °C 13.3 °C 1020.2 hPa East 11.1 km/h 27.4 km/h 58.8% 0 mm 570 W/m2
14:54 21.2 °C 13.3 °C 1020.2 hPa ESE 13.8 km/h 24.1 km/h 59% 0 mm 568 W/m2
14:59 21.2 °C 13.3 °C 1020.2 hPa East 13.2 km/h 25.7 km/h 58.8% 0 mm 568 W/m2
15:04 21.5 °C 13.5 °C 1020.2 hPa ENE 6.6 km/h 20.9 km/h 58.6% 0 mm 566 W/m2
15:09 21.5 °C 13.6 °C 1020.2 hPa ENE 10.9 km/h 25.7 km/h 58.8% 0 mm 566 W/m2
15:14 21.7 °C 13.7 °C 1019.9 hPa ENE 8.9 km/h 20.9 km/h 58.5% 0 mm 557 W/m2
15:19 21.7 °C 13.6 °C 1019.9 hPa NE 8.2 km/h 40.2 km/h 58% 0 mm 489 W/m2
15:24 21.5 °C 13.4 °C 1019.5 hPa East 10.9 km/h 25.7 km/h 58.4% 0 mm 508 W/m2
15:29 21.4 °C 13.4 °C 1019.5 hPa East 9.7 km/h 19.3 km/h 58.6% 0 mm 452 W/m2
15:34 21.4 °C 13.4 °C 1019.9 hPa East 11.9 km/h 25.7 km/h 58.6% 0 mm 408 W/m2
15:39 21.1 °C 13.2 °C 1019.5 hPa East 7.4 km/h 25.7 km/h 59% 0 mm 480 W/m2
15:44 21.3 °C 13.4 °C 1019.5 hPa East 12.2 km/h 29 km/h 59% 0 mm 485 W/m2
15:49 21.4 °C 13.3 °C 1019.5 hPa East 11.3 km/h 22.5 km/h 58% 0 mm 443 W/m2
15:54 21.6 °C 13.2 °C 1019.5 hPa ENE 13.5 km/h 29 km/h 57.2% 0 mm 494 W/m2
15:59 21.3 °C 13.1 °C 1019.5 hPa NE 9.7 km/h 29 km/h 57.4% 0 mm 327 W/m2
16:04 21.1 °C 13 °C 1019.5 hPa NE 11.3 km/h 24.1 km/h 58% 0 mm 438 W/m2
16:09 21.2 °C 13.1 °C 1019.2 hPa ENE 7.6 km/h 27.4 km/h 58% 0 mm 513 W/m2
16:14 21.3 °C 13.2 °C 1019.2 hPa East 13.5 km/h 27.4 km/h 57.8% 0 mm 334 W/m2
16:19 21 °C 12.8 °C 1019.2 hPa ENE 9 km/h 27.4 km/h 57.6% 0 mm 258 W/m2
16:24 20.8 °C 12.9 °C 1019.2 hPa NE 13.2 km/h 27.4 km/h 58.8% 0 mm 257 W/m2
16:29 20.8 °C 12.9 °C 1019.2 hPa ENE 13.2 km/h 29 km/h 58.8% 0 mm 309 W/m2
16:34 20.7 °C 12.8 °C 1019.2 hPa East 10.5 km/h 29 km/h 58.8% 0 mm 338 W/m2
16:39 20.8 °C 12.9 °C 1018.8 hPa ENE 11.9 km/h 24.1 km/h 58.8% 0 mm 327 W/m2
16:44 20.8 °C 12.8 °C 1018.8 hPa ENE 8.2 km/h 25.7 km/h 58.2% 0 mm 287 W/m2
16:48 20.9 °C 12.8 °C 1018.8 hPa NE 6.4 km/h 25.7 km/h 58% 0 mm 343 W/m2
16:54 21.2 °C 13 °C 1018.8 hPa ESE 9.3 km/h 20.9 km/h 57.6% 0 mm 376 W/m2
16:59 21.4 °C 12.9 °C 1018.8 hPa East 5.3 km/h 20.9 km/h 56.8% 0 mm 362 W/m2
17:04 21.6 °C 12.9 °C 1018.8 hPa East 6.4 km/h 19.3 km/h 56.3% 0 mm 330 W/m2
17:09 21.5 °C 12.6 °C 1018.8 hPa ENE 7.2 km/h 25.7 km/h 55.4% 0 mm 320 W/m2
17:14 21.3 °C 12.4 °C 1018.5 hPa East 12.1 km/h 25.7 km/h 55.2% 0 mm 295 W/m2
17:19 21.2 °C 12.4 °C 1018.5 hPa East 10.3 km/h 27.4 km/h 55.4% 0 mm 257 W/m2
17:24 21 °C 12.3 °C 1018.5 hPa NE 11.6 km/h 22.5 km/h 55.8% 0 mm 100 W/m2
17:29 20.7 °C 12.1 °C 1018.5 hPa ENE 10.1 km/h 20.9 km/h 56% 0 mm 100 W/m2
17:34 20.5 °C 12 °C 1018.5 hPa ENE 10.6 km/h 16.1 km/h 56.4% 0 mm 114 W/m2
17:39 20.4 °C 12.1 °C 1018.5 hPa East 7.7 km/h 17.7 km/h 56.8% 0 mm 125 W/m2
17:44 20.4 °C 12.2 °C 1018.5 hPa East 7.4 km/h 20.9 km/h 57% 0 mm 167 W/m2
17:49 20.5 °C 12.2 °C 1018.5 hPa ENE 6.4 km/h 14.5 km/h 57% 0 mm 183 W/m2
17:54 20.6 °C 12.2 °C 1018.5 hPa ENE 8.5 km/h 24.1 km/h 57% 0 mm 183 W/m2
17:59 20.6 °C 12.2 °C 1018.5 hPa NE 8.5 km/h 24.1 km/h 56.8% 0 mm 148 W/m2
18:04 20.2 °C 11.9 °C 1018.5 hPa NE 11.3 km/h 22.5 km/h 57% 0 mm 100 W/m2
18:09 19.9 °C 11.8 °C 1018.5 hPa ENE 10 km/h 22.5 km/h 57.8% 0 mm 79 W/m2
18:14 19.7 °C 11.8 °C 1018.5 hPa ENE 12.2 km/h 20.9 km/h 58.2% 0 mm 67 W/m2
18:19 19.6 °C 11.7 °C 1018.8 hPa ENE 4.2 km/h 20.9 km/h 58.8% 0 mm 58 W/m2
18:24 19.4 °C 11.7 °C 1018.8 hPa NNE 5.6 km/h 16.1 km/h 59% 0 mm 49 W/m2
18:29 19.3 °C 11.6 °C 1018.8 hPa ENE 6.4 km/h 16.1 km/h 59% 0 mm 42 W/m2
18:34 19.3 °C 11.6 °C 1018.8 hPa ENE 9.8 km/h 20.9 km/h 59% 0 mm 37 W/m2
18:39 19.2 °C 11.5 °C 1018.8 hPa ENE 6.1 km/h 16.1 km/h 59.2% 0 mm 33 W/m2
18:44 19.1 °C 11.4 °C 1018.8 hPa ENE 7.2 km/h 17.7 km/h 59.2% 0 mm 32 W/m2
18:49 18.9 °C 11.3 °C 1018.8 hPa ENE 7.2 km/h 17.7 km/h 59.4% 0 mm 28 W/m2
18:54 18.8 °C 11.3 °C 1018.8 hPa ENE 4.8 km/h 14.5 km/h 60% 0 mm 23 W/m2
18:59 18.7 °C 11.2 °C 1018.8 hPa ENE 12.1 km/h 24.1 km/h 60% 0 mm 19 W/m2
19:04 18.6 °C 11.2 °C 1018.8 hPa East 7.1 km/h 22.5 km/h 60% 0 mm 12 W/m2
19:09 18.4 °C 11 °C 1019.2 hPa NE 5.3 km/h 16.1 km/h 60% 0 mm 9 W/m2
19:14 18.3 °C 10.9 °C 1019.2 hPa ESE 8.9 km/h 12.9 km/h 60% 0 mm 5 W/m2
19:19 18.3 °C 10.9 °C 1019.2 hPa East 4.8 km/h 16.1 km/h 60% 0 mm 0 W/m2
19:24 18.4 °C 11.1 °C 1019.2 hPa East 9 km/h 17.7 km/h 60.4% 0 mm 0 W/m2
19:29 18.3 °C 10.9 °C 1019.2 hPa ENE 10.6 km/h 27.4 km/h 60% 0 mm 0 W/m2
19:34 18.2 °C 10.8 °C 1019.2 hPa East 7.9 km/h 27.4 km/h 60% 0 mm 0 W/m2
19:39 18.1 °C 10.7 °C 1019.2 hPa ENE 9 km/h 20.9 km/h 59.8% 0 mm 0 W/m2
19:44 17.9 °C 10.3 °C 1019.2 hPa ENE 10.9 km/h 20.9 km/h 59.4% 0 mm 0 W/m2
19:49 17.8 °C 10.3 °C 1019.5 hPa ENE 5.1 km/h 24.1 km/h 59.6% 0 mm 0 W/m2
19:54 17.8 °C 10.4 °C 1019.5 hPa ENE 9.5 km/h 17.7 km/h 60% 0 mm 0 W/m2
19:59 17.7 °C 10.3 °C 1019.5 hPa East 9.3 km/h 20.9 km/h 60% 0 mm 0 W/m2
20:04 17.6 °C 10.2 °C 1019.5 hPa East 9.2 km/h 20.9 km/h 60% 0 mm 0 W/m2
20:09 17.5 °C 10.1 °C 1019.5 hPa ENE 10.3 km/h 20.9 km/h 60% 0 mm 0 W/m2
20:14 17.4 °C 10 °C 1019.5 hPa ENE 8 km/h 20.9 km/h 60% 0 mm 0 W/m2
20:19 17.3 °C 9.9 °C 1019.5 hPa ENE 9.5 km/h 20.9 km/h 60% 0 mm 0 W/m2
20:24 17.3 °C 10.2 °C 1019.5 hPa East 6.4 km/h 17.7 km/h 61% 0 mm 0 W/m2
20:29 17.2 °C 10.1 °C 1019.5 hPa East 10.6 km/h 22.5 km/h 61% 0 mm 0 W/m2
20:34 17.1 °C 10 °C 1019.9 hPa ENE 5.1 km/h 20.9 km/h 61% 0 mm 0 W/m2
20:39 17.1 °C 10.2 °C 1019.9 hPa ESE 8.4 km/h 19.3 km/h 61.8% 0 mm 0 W/m2
20:44 17.1 °C 10.2 °C 1019.9 hPa East 4.7 km/h 24.1 km/h 62% 0 mm 0 W/m2
20:49 16.8 °C 10.1 °C 1019.9 hPa ESE 4 km/h 16.1 km/h 62.4% 0 mm 0 W/m2
20:54 16.8 °C 10.2 °C 1019.9 hPa East 11.3 km/h 22.5 km/h 63% 0 mm 0 W/m2
20:59 16.8 °C 10.4 °C 1019.9 hPa ENE 6.6 km/h 19.3 km/h 64% 0 mm 0 W/m2
21:04 16.7 °C 10.3 °C 1019.9 hPa East 9.2 km/h 17.7 km/h 64% 0 mm 0 W/m2
21:09 16.7 °C 10.3 °C 1019.9 hPa East 5.8 km/h 19.3 km/h 64% 0 mm 0 W/m2
21:14 16.6 °C 10.4 °C 1019.9 hPa ENE 6.8 km/h 22.5 km/h 64.8% 0 mm 0 W/m2
21:19 16.4 °C 10.3 °C 1019.9 hPa East 7.4 km/h 24.1 km/h 65% 0 mm 0 W/m2
21:24 16.3 °C 10.4 °C 1019.9 hPa ENE 10.9 km/h 20.9 km/h 65.6% 0 mm 0 W/m2
21:29 16.3 °C 10.4 °C 1019.9 hPa ENE 6.9 km/h 22.5 km/h 66% 0 mm 0 W/m2
21:34 16.2 °C 10.4 °C 1019.9 hPa East 8 km/h 19.3 km/h 66.6% 0 mm 0 W/m2
21:39 16.1 °C 10.4 °C 1019.9 hPa ENE 5.6 km/h 25.7 km/h 67% 0 mm 0 W/m2
21:44 16 °C 10.5 °C 1019.9 hPa ENE 7.9 km/h 17.7 km/h 67.6% 0 mm 0 W/m2
21:49 15.9 °C 10.4 °C 1019.9 hPa East 11.6 km/h 20.9 km/h 68% 0 mm 0 W/m2
21:54 15.8 °C 10.4 °C 1019.9 hPa ENE 7.1 km/h 22.5 km/h 68% 0 mm 0 W/m2
21:59 15.8 °C 10.6 °C 1019.9 hPa ENE 5.1 km/h 17.7 km/h 68.8% 0 mm 0 W/m2
22:04 15.7 °C 10.4 °C 1020.2 hPa East 6.8 km/h 22.5 km/h 69% 0 mm 0 W/m2
22:09 15.5 °C 10.4 °C 1020.2 hPa ENE 6 km/h 14.5 km/h 69.6% 0 mm 0 W/m2
22:14 15.3 °C 10.4 °C 1020.2 hPa East 4.5 km/h 17.7 km/h 70.2% 0 mm 0 W/m2
22:19 15.2 °C 10.5 °C 1020.2 hPa East 3.4 km/h 14.5 km/h 71% 0 mm 0 W/m2
22:24 15.2 °C 10.7 °C 1020.2 hPa ENE 6.8 km/h 17.7 km/h 72% 0 mm 0 W/m2
22:29 15.1 °C 10.6 °C 1020.2 hPa East 3.2 km/h 12.9 km/h 72% 0 mm 0 W/m2
22:34 14.8 °C 10.4 °C 1020.2 hPa ENE 7.1 km/h 20.9 km/h 72.4% 0 mm 0 W/m2
22:39 14.8 °C 10.5 °C 1020.2 hPa NE 8.9 km/h 16.1 km/h 73% 0 mm 0 W/m2
22:44 14.7 °C 10.4 °C 1020.2 hPa ENE 6.4 km/h 14.5 km/h 73.2% 0 mm 0 W/m2
22:49 14.6 °C 10.4 °C 1020.2 hPa East 4.8 km/h 14.5 km/h 73.5% 0 mm 0 W/m2
22:54 14.4 °C 10.3 °C 1019.9 hPa East 3.9 km/h 8 km/h 74% 0 mm 0 W/m2
22:59 14.3 °C 10.2 °C 1020.2 hPa East 5.8 km/h 19.3 km/h 74% 0 mm 0 W/m2
23:04 14.3 °C 10.2 °C 1019.9 hPa East 4.7 km/h 12.9 km/h 74% 0 mm 0 W/m2
23:09 14.2 °C 10.3 °C 1019.9 hPa East 8.7 km/h 16.1 km/h 74.8% 0 mm 0 W/m2
23:14 14.2 °C 10.2 °C 1019.9 hPa East 6.3 km/h 16.1 km/h 74.8% 0 mm 0 W/m2
23:19 14.1 °C 10.2 °C 1019.9 hPa NE 6.3 km/h 16.1 km/h 75% 0 mm 0 W/m2
23:24 14.1 °C 10.2 °C 1019.5 hPa ESE 7.9 km/h 20.9 km/h 75% 0 mm 0 W/m2
23:29 14 °C 10.1 °C 1019.5 hPa East 6.4 km/h 20.9 km/h 75% 0 mm 0 W/m2
23:34 13.9 °C 10 °C 1019.5 hPa East 9.7 km/h 16.1 km/h 75% 0 mm 0 W/m2
23:39 13.9 °C 10 °C 1019.5 hPa East 10.3 km/h 16.1 km/h 75% 0 mm 0 W/m2
23:44 13.8 °C 10.1 °C 1019.5 hPa ENE 9.7 km/h 20.9 km/h 75.8% 0 mm 0 W/m2
23:49 13.8 °C 10 °C 1019.5 hPa ENE 7.6 km/h 20.9 km/h 75.6% 0 mm 0 W/m2
23:54 13.7 °C 10 °C 1019.5 hPa ENE 4.7 km/h 24.1 km/h 76% 0 mm 0 W/m2
23:59 13.7 °C 10 °C 1019.5 hPa East 8.7 km/h 20.9 km/h 76% 0 mm 0 W/m2
Bath Spa Weather
Compliments of Weather Underground - 2 mb